Snettisham, United Kingdom
Current Conditions -  °F | °C
As of 3:50 PM on Thursday 25 Dec 2014 (Local Time) from EGYM Reporting Station
Broken Clouds Broken Clouds  
Wind Chill: 39°   Ceiling: 3400
Heat Index: 43°   Visibility: 6mi
Dew Point: 37°   Wind: 7mph
Humidity: 81%   Direction: 300°WNW
Pressure: 30.36"   Gusts: NA
Location:  52.88°N, 0.5°E
Report Text: EGYM 251550Z AUTO 30006KT 9999 FEW028/// BKN034/// 06/03 Q1028
Loading
Personal Weather Stations






























Interactive Weather Map New forecast layout! Learn more

10-Day Weather Forecast

Advertisements
Track Severe Weather on mobile